Time;durP1;ratioP1;P1;durP2;ratioP2;P2;SDS_P1;SDS_P2;PMS_P1;PMS_P2;Temp;Humidity;BMP_temperature;BMP_pressure;BME280_temperature;BME280_humidity;BME280_pressure;Samples;Min_cycle;Max_cycle;Signal;HPM_P1;HPM_P2
2021/04/25 00:01:00;;;;;;;;;;;;;;;11.33;35.21;101988.78;4879021;28;97830;-78
2021/04/25 00:03:31;;;;;;;;;;;;;;;11.26;35.21;101990.66;4878021;28;98723;-78
2021/04/25 00:05:57;;;;;;;;;;;;;;;11.28;35.25;101990.63;4878551;28;96862;-78
2021/04/25 00:08:24;;;;;;;;;;;;;;;11.26;35.88;101981.84;4880881;28;97171;-78
2021/04/25 00:10:50;;;;;;;;;;;;;;;11.29;35.14;101971.22;4880443;28;101563;-79
2021/04/25 00:13:16;;;;;;;;;;;;;;;11.23;35.15;101971.31;4882034;28;98017;-77
2021/04/25 00:15:42;;;;;;;;;;;;;;;11.47;34.93;101974.38;4886333;28;96649;-78
2021/04/25 00:18:07;;;;;;;;;;;;;;;11.26;36.05;101977.44;4888545;28;97015;-79
2021/04/25 00:20:33;;;;;;;;;;;;;;;11.17;36.53;101975.81;4883928;28;97786;-79
2021/04/25 00:22:59;;;;;;;;;;;;;;;11.22;36.15;101975.75;4879072;28;97711;-78
2021/04/25 00:25:26;;;;;;;;;;;;;;;11.48;35.56;101972.59;4886670;28;96706;-78
2021/04/25 00:27:52;;;;;;;;;;;;;;;11.22;36.20;101966.94;4879424;28;96829;-78
2021/04/25 00:30:19;;;;;;;;;;;;;;;11.16;36.49;101973.19;4876974;28;101814;-79
2021/04/25 00:32:44;;;;;;;;;;;;;;;11.42;36.20;101967.44;4868115;28;99454;-77
2021/04/25 00:35:11;;;;;;;;;;;;;;;11.19;36.99;101962.56;4874449;28;96767;-78
2021/04/25 00:37:37;;;;;;;;;;;;;;;11.10;37.38;101968.91;4868236;28;96746;-78
2021/04/25 00:40:04;;;;;;;;;;;;;;;11.10;37.43;101958.31;4874465;28;98832;-78
2021/04/25 00:42:30;;;;;;;;;;;;;;;11.19;36.58;101959.94;4870344;28;98838;-78
2021/04/25 00:44:56;;;;;;;;;;;;;;;11.10;36.97;101963.59;4876982;28;97351;-79
2021/04/25 00:47:22;;;;;;;;;;;;;;;11.26;36.01;101960.69;4879141;28;96903;-78
2021/04/25 00:49:48;;;;;;;;;;;;;;;11.08;35.85;101956.63;4877060;28;99203;-78
2021/04/25 00:52:14;;;;;;;;;;;;;;;11.63;35.23;101958.16;4871047;28;98969;-78
2021/04/25 00:54:41;;;;;;;;;;;;;;;11.61;35.69;101952.06;4879835;28;96878;-79
2021/04/25 00:57:07;;;;;;;;;;;;;;;11.60;35.56;101953.81;4879105;28;97034;-78
2021/04/25 00:59:33;;;;;;;;;;;;;;;11.55;35.92;101953.06;4877918;28;99187;-77
2021/04/25 01:01:59;;;;;;;;;;;;;;;11.37;35.54;101945.47;4871549;28;99180;-79
2021/04/25 01:04:25;;;;;;;;;;;;;;;11.33;36.13;101949.94;4878824;28;97368;-78
2021/04/25 01:06:51;;;;;;;;;;;;;;;11.36;37.49;101949.88;4873844;28;96809;-78
2021/04/25 01:09:16;;;;;;;;;;;;;;;11.26;37.70;101952.75;4878314;28;100712;-78
2021/04/25 01:11:42;;;;;;;;;;;;;;;10.90;38.06;101949.00;4874768;28;98712;-77
2021/04/25 01:14:08;;;;;;;;;;;;;;;11.40;37.20;101945.41;4877325;28;96862;-79
2021/04/25 01:16:35;;;;;;;;;;;;;;;11.12;36.89;101947.72;4874786;28;97080;-79
2021/04/25 01:19:01;;;;;;;;;;;;;;;11.07;37.34;101944.28;4875082;28;99015;-78
2021/04/25 01:21:28;;;;;;;;;;;;;;;11.14;37.47;101945.91;4877527;28;98836;-78
2021/04/25 01:23:53;;;;;;;;;;;;;;;11.12;37.46;101947.72;4874901;28;96736;-78
2021/04/25 01:26:19;;;;;;;;;;;;;;;11.10;37.46;101944.22;4878047;28;96927;-78
2021/04/25 01:28:45;;;;;;;;;;;;;;;11.20;38.12;101945.81;4876635;28;98837;-78
2021/04/25 01:31:11;;;;;;;;;;;;;;;11.12;37.62;101947.72;4877750;28;99217;-78
2021/04/25 01:33:37;;;;;;;;;;;;;;;11.15;37.07;101940.59;4873416;28;96881;-78
2021/04/25 01:36:04;;;;;;;;;;;;;;;11.25;36.56;101943.94;4878547;28;97161;-78
2021/04/25 01:38:31;;;;;;;;;;;;;;;11.26;36.45;101943.03;4875340;28;98944;-78
2021/04/25 01:40:56;;;;;;;;;;;;;;;11.64;35.52;101936.97;4878419;28;100289;-79
2021/04/25 01:43:22;;;;;;;;;;;;;;;11.63;34.80;101943.16;4877287;28;96734;-78
2021/04/25 01:45:48;;;;;;;;;;;;;;;11.39;34.42;101936.59;4879135;28;97254;-78
2021/04/25 01:48:14;;;;;;;;;;;;;;;11.54;34.04;101941.59;4868328;28;98911;-77
2021/04/25 01:50:40;;;;;;;;;;;;;;;11.43;34.98;101937.41;4881637;28;100649;-77
2021/04/25 01:53:07;;;;;;;;;;;;;;;11.65;34.99;101945.78;4866489;28;96867;-78
2021/04/25 01:55:35;;;;;;;;;;;;;;;11.68;34.88;101941.31;4871293;28;97405;-78
2021/04/25 01:58:01;;;;;;;;;;;;;;;11.69;35.53;101942.16;4871282;28;99139;-79
2021/04/25 02:00:29;;;;;;;;;;;;;;;11.68;35.20;101949.25;4873572;28;99138;-80
2021/04/25 02:02:58;;;;;;;;;;;;;;;11.82;34.44;101944.53;4880648;28;96850;-78
2021/04/25 02:05:24;;;;;;;;;;;;;;;11.77;34.26;101937.59;4879550;28;97100;-78
2021/04/25 02:07:51;;;;;;;;;;;;;;;11.92;33.32;101947.88;4879791;28;99001;-79
2021/04/25 02:10:17;;;;;;;;;;;;;;;12.02;32.62;101933.50;4877831;28;98956;-77
2021/04/25 02:12:44;;;;;;;;;;;;;;;12.08;33.41;101940.47;4869553;28;97348;-79
2021/04/25 02:15:11;;;;;;;;;;;;;;;12.16;33.43;101942.00;4873688;28;96870;-79
2021/04/25 02:17:37;;;;;;;;;;;;;;;12.14;32.79;101933.22;4879304;28;101025;-79
2021/04/25 02:20:04;;;;;;;;;;;;;;;12.14;32.49;101942.97;4873580;28;99571;-79
2021/04/25 02:22:30;;;;;;;;;;;;;;;11.90;33.08;101939.97;4878189;28;96736;-78
2021/04/25 02:24:56;;;;;;;;;;;;;;;12.10;32.83;101926.25;4878795;28;97310;-78
2021/04/25 02:27:22;;;;;;;;;;;;;;;11.90;32.96;101928.47;4879692;28;98901;-79
2021/04/25 02:29:49;;;;;;;;;;;;;;;12.01;32.77;101925.63;4870905;28;99369;-79
2021/04/25 02:32:14;;;;;;;;;;;;;;;11.71;32.83;101927.13;4873385;28;97420;-79
2021/04/25 02:34:40;;;;;;;;;;;;;;;11.63;33.50;101921.97;4874947;28;97283;-79
2021/04/25 02:37:06;;;;;;;;;;;;;;;11.80;33.85;101926.97;4875402;28;98477;-78
2021/04/25 02:39:32;;;;;;;;;;;;;;;11.47;34.32;101931.16;4877159;28;98904;-78
2021/04/25 02:41:58;;;;;;;;;;;;;;;11.18;35.39;101929.94;4873306;28;97204;-79
2021/04/25 02:44:24;;;;;;;;;;;;;;;11.14;35.91;101930.03;4862235;28;96762;-79
2021/04/25 02:46:51;;;;;;;;;;;;;;;11.09;36.59;101926.63;4870655;28;99150;-78
2021/04/25 02:49:16;;;;;;;;;;;;;;;11.00;37.05;101926.78;4880930;28;97111;-78
2021/04/25 02:51:43;;;;;;;;;;;;;;;11.18;36.43;101926.44;4870383;28;96837;-79
2021/04/25 02:54:09;;;;;;;;;;;;;;;11.13;36.62;101920.38;4865450;28;96933;-80
2021/04/25 02:56:35;;;;;;;;;;;;;;;11.19;37.31;101922.88;4877719;28;101404;-79
2021/04/25 02:59:01;;;;;;;;;;;;;;;11.10;37.75;101923.06;4876572;28;99097;-79
2021/04/25 03:01:26;;;;;;;;;;;;;;;10.99;38.04;101919.75;4876826;28;96809;-79
2021/04/25 03:03:53;;;;;;;;;;;;;;;11.16;37.19;101913.22;4878442;28;96807;-79
2021/04/25 03:06:19;;;;;;;;;;;;;;;11.14;37.30;101920.34;4878161;28;98924;-78
2021/04/25 03:08:45;;;;;;;;;;;;;;;11.38;37.02;101918.97;4876979;28;102079;-78
2021/04/25 03:11:11;;;;;;;;;;;;;;;11.21;36.27;101914.94;4878431;28;96987;-79
2021/04/25 03:13:36;;;;;;;;;;;;;;;11.20;36.20;101908.75;4876428;28;97374;-78
2021/04/25 03:16:03;;;;;;;;;;;;;;;11.05;36.24;101915.22;4866341;28;100623;-78
2021/04/25 03:18:29;;;;;;;;;;;;;;;11.25;36.33;101912.19;4878416;28;98822;-79
2021/04/25 03:20:56;;;;;;;;;;;;;;;11.25;36.26;101912.19;4877055;28;96956;-79
2021/04/25 03:23:21;;;;;;;;;;;;;;;11.19;36.47;101913.19;4878645;28;97194;-79
2021/04/25 03:25:47;;;;;;;;;;;;;;;11.35;36.29;101908.47;4868552;28;98136;-79
2021/04/25 03:28:13;;;;;;;;;;;;;;;11.15;36.41;101913.28;4878710;28;98061;-78
2021/04/25 03:30:39;;;;;;;;;;;;;;;11.28;36.42;101913.91;4879135;28;96892;-78
2021/04/25 03:33:06;;;;;;;;;;;;;;;11.66;34.94;101913.09;4879361;28;96745;-79
2021/04/25 03:35:31;;;;;;;;;;;;;;;11.67;34.48;101909.56;4878064;28;98864;-79
2021/04/25 03:37:58;;;;;;;;;;;;;;;11.73;33.29;101920.88;4877850;28;98896;-79
2021/04/25 03:40:24;;;;;;;;;;;;;;;10.66;36.45;101929.16;4878654;28;96785;-79
2021/04/25 03:42:50;;;;;;;;;;;;;;;10.31;37.81;101945.56;4879423;28;96923;-79
2021/04/25 03:45:16;;;;;;;;;;;;;;;10.46;37.19;101934.75;4878082;28;98891;-79
2021/04/25 03:47:44;;;;;;;;;;;;;;;10.68;36.40;101925.59;4878191;28;98165;-79
2021/04/25 03:50:10;;;;;;;;;;;;;;;11.39;35.27;101930.44;4876556;28;97275;-79
2021/04/25 03:52:36;;;;;;;;;;;;;;;10.76;36.57;101938.69;4869427;28;96838;-78
2021/04/25 03:55:03;;;;;;;;;;;;;;;9.88;38.57;101935.63;4878285;28;99611;-79
2021/04/25 03:57:29;;;;;;;;;;;;;;;10.34;37.89;101934.97;4876338;28;99767;-80
2021/04/25 03:59:55;;;;;;;;;;;;;;;10.91;37.05;101927.81;4880043;28;96985;-78
2021/04/25 04:02:21;;;;;;;;;;;;;;;11.14;36.58;101930.91;4878289;28;96840;-78
2021/04/25 04:04:46;;;;;;;;;;;;;;;11.16;36.86;101936.16;4877760;28;98301;-79
2021/04/25 04:07:12;;;;;;;;;;;;;;;10.49;38.25;101939.13;4878989;28;98177;-78
2021/04/25 04:09:39;;;;;;;;;;;;;;;10.48;38.26;101940.91;4877537;28;97217;-78
2021/04/25 04:12:06;;;;;;;;;;;;;;;10.67;38.22;101939.72;4875674;28;96821;-79
2021/04/25 04:14:32;;;;;;;;;;;;;;;10.59;38.47;101936.31;4877007;28;99428;-78
2021/04/25 04:16:58;;;;;;;;;;;;;;;10.99;37.80;101947.06;4879134;28;99159;-79
2021/04/25 04:19:24;;;;;;;;;;;;;;;10.69;38.32;101943.22;4880542;28;96822;-78
2021/04/25 04:21:50;;;;;;;;;;;;;;;10.88;38.48;101950.81;4881372;28;96860;-78
2021/04/25 04:24:16;;;;;;;;;;;;;;;10.99;37.78;101947.06;4880555;28;97650;-79
2021/04/25 04:26:41;;;;;;;;;;;;;;;11.25;37.13;101943.94;4880702;28;99146;-79
2021/04/25 04:29:08;;;;;;;;;;;;;;;11.42;36.90;101944.47;4879893;28;96830;-79
2021/04/25 04:31:34;;;;;;;;;;;;;;;11.21;36.97;101946.69;4879806;28;96958;-79
2021/04/25 04:34:00;;;;;;;;;;;;;;;11.23;37.06;101947.50;4879194;28;99972;-79
2021/04/25 04:36:26;;;;;;;;;;;;;;;11.53;36.39;101949.56;4879215;28;98148;-78
2021/04/25 04:38:52;;;;;;;;;;;;;;;11.36;36.75;101939.28;4879131;28;96761;-81
2021/04/25 04:41:17;;;;;;;;;;;;;;;11.32;36.73;101945.56;4880067;28;97364;-77
2021/04/25 04:43:44;;;;;;;;;;;;;;;11.51;36.27;101948.72;4879844;28;99161;-78
2021/04/25 04:46:11;;;;;;;;;;;;;;;12.10;35.44;101947.44;4881482;28;99332;-79
2021/04/25 04:48:36;;;;;;;;;;;;;;;11.95;35.55;101946.00;4881034;28;97532;-78
2021/04/25 04:51:02;;;;;;;;;;;;;;;11.81;35.48;101950.78;4880030;28;96827;-78
2021/04/25 04:53:28;;;;;;;;;;;;;;;11.83;35.13;101948.06;4880190;28;98830;-79
2021/04/25 04:55:54;;;;;;;;;;;;;;;12.08;34.82;101946.59;4880900;28;99039;-80
2021/04/25 04:58:20;;;;;;;;;;;;;;;12.10;34.68;101946.56;4880549;28;96818;-79
2021/04/25 05:00:45;;;;;;;;;;;;;;;11.74;35.21;101946.50;4880409;28;97248;-80
2021/04/25 05:03:12;;;;;;;;;;;;;;;11.76;34.83;101946.44;4881249;28;98978;-79
2021/04/25 05:05:38;;;;;;;;;;;;;;;11.90;34.36;101950.56;4890310;28;98046;-80
2021/04/25 05:08:04;;;;;;;;;;;;;;;11.54;35.06;101949.53;4898911;28;95930;-78
2021/04/25 05:10:30;;;;;;;;;;;;;;;11.58;35.10;101950.31;4896314;28;96490;-77
2021/04/25 05:12:55;;;;;;;;;;;;;;;11.61;35.17;101946.75;4886491;28;99311;-80
2021/04/25 05:15:21;;;;;;;;;;;;;;;11.56;34.79;101950.34;4881104;28;98870;-80
2021/04/25 05:17:47;;;;;;;;;;;;;;;11.92;34.52;101947.88;4882519;28;96733;-79
2021/04/25 05:20:14;;;;;;;;;;;;;;;12.35;33.64;101951.28;4881162;28;97199;-78
2021/04/25 05:22:40;;;;;;;;;;;;;;;11.88;33.45;101951.50;4880302;28;99559;-79
2021/04/25 05:25:07;;;;;;;;;;;;;;;12.05;33.27;101952.00;4880219;28;98114;-79
2021/04/25 05:27:33;;;;;;;;;;;;;;;11.85;33.49;101943.63;4881556;28;97234;-78
2021/04/25 05:29:59;;;;;;;;;;;;;;;12.23;32.79;101948.91;4880623;28;96918;-76
2021/04/25 05:32:25;;;;;;;;;;;;;;;12.28;32.83;101952.31;4882720;28;98230;-79
2021/04/25 05:34:51;;;;;;;;;;;;;;;12.38;32.50;101948.56;4884083;28;98840;-79
2021/04/25 05:37:18;;;;;;;;;;;;;;;12.32;32.89;101947.84;4883507;28;96769;-78
2021/04/25 05:39:43;;;;;;;;;;;;;;;12.59;33.11;101946.31;4880299;28;97013;-79
2021/04/25 05:42:09;;;;;;;;;;;;;;;12.09;33.40;101955.44;4875478;28;98961;-79
2021/04/25 05:44:35;;;;;;;;;;;;;;;12.06;33.54;101961.69;4880214;28;99702;-79
2021/04/25 05:47:01;;;;;;;;;;;;;;;11.74;33.53;101959.75;4875483;28;97047;-79
2021/04/25 05:49:27;;;;;;;;;;;;;;;11.88;33.30;101967.41;4875190;28;97208;-78
2021/04/25 05:51:53;;;;;;;;;;;;;;;12.25;32.81;101965.66;4885604;28;97808;-79
2021/04/25 05:54:19;;;;;;;;;;;;;;;11.37;33.96;101969.28;4887727;28;98252;-79
2021/04/25 05:56:45;;;;;;;;;;;;;;;11.81;33.44;101977.25;4872118;28;96876;-79
2021/04/25 05:59:11;;;;;;;;;;;;;;;12.03;33.08;101961.75;4872517;28;97750;-81
2021/04/25 06:01:37;;;;;;;;;;;;;;;11.90;33.43;101962.91;4881568;28;103087;-79
2021/04/25 06:04:04;;;;;;;;;;;;;;;12.21;33.06;101963.97;4879039;28;98384;-79
2021/04/25 06:06:30;;;;;;;;;;;;;;;11.72;33.52;101969.44;4875925;28;97625;-78
2021/04/25 06:08:56;;;;;;;;;;;;;;;11.06;35.06;101976.94;4877266;28;96859;-79
2021/04/25 06:11:23;;;;;;;;;;;;;;;11.71;34.11;101973.00;4879321;28;99160;-79
2021/04/25 06:13:48;;;;;;;;;;;;;;;12.39;32.65;101962.69;4871251;28;100918;-79
2021/04/25 06:16:14;;;;;;;;;;;;;;;12.70;32.12;101970.75;4877765;28;97453;-80
2021/04/25 06:18:40;;;;;;;;;;;;;;;12.29;32.56;101975.28;4879399;28;97193;-78
2021/04/25 06:21:06;;;;;;;;;;;;;;;12.35;31.97;101977.78;4879115;28;99806;-79
2021/04/25 06:23:32;;;;;;;;;;;;;;;11.93;32.70;101976.09;4881850;28;97713;-79
2021/04/25 06:25:58;;;;;;;;;;;;;;;12.30;31.82;101977.03;4875492;28;97264;-81
2021/04/25 06:28:27;;;;;;;;;;;;;;;12.18;32.31;101985.25;4883514;28;96859;-79
2021/04/25 06:30:53;;;;;;;;;;;;;;;12.31;31.71;101977.91;4865256;28;98965;-78
2021/04/25 06:33:19;;;;;;;;;;;;;;;12.30;32.12;101979.66;4865819;28;98994;-80
2021/04/25 06:35:45;;;;;;;;;;;;;;;12.21;31.98;101976.34;4879912;28;97106;-80
2021/04/25 06:38:11;;;;;;;;;;;;;;;12.55;31.71;101976.44;4873677;28;96832;-79
2021/04/25 06:40:37;;;;;;;;;;;;;;;11.92;32.20;101979.66;4871790;28;100727;-80
2021/04/25 06:43:04;;;;;;;;;;;;;;;12.29;31.39;101982.34;4873233;28;100026;-80
2021/04/25 06:45:32;;;;;;;;;;;;;;;12.35;31.51;101979.56;4877352;28;96981;-80
2021/04/25 06:47:58;;;;;;;;;;;;;;;12.48;30.93;101980.13;4882659;28;97511;-79
2021/04/25 06:50:24;;;;;;;;;;;;;;;12.21;31.50;101984.28;4868413;28;100352;-80
2021/04/25 06:52:50;;;;;;;;;;;;;;;12.57;30.82;101985.22;4886286;28;101445;-78
2021/04/25 06:55:17;;;;;;;;;;;;;;;12.47;30.92;101978.41;4864355;28;96822;-79
2021/04/25 06:57:43;;;;;;;;;;;;;;;12.66;30.83;101985.03;4882630;28;97077;-80
2021/04/25 07:00:11;;;;;;;;;;;;;;;12.77;30.69;101980.31;4869046;28;99188;-79
2021/04/25 07:02:37;;;;;;;;;;;;;;;12.83;30.21;101993.41;4878348;28;98163;-79
2021/04/25 07:05:04;;;;;;;;;;;;;;;13.21;29.80;101989.81;4874369;28;96785;-79
2021/04/25 07:07:30;;;;;;;;;;;;;;;12.94;30.02;101986.03;4878473;28;97050;-80
2021/04/25 07:09:56;;;;;;;;;;;;;;;13.06;29.92;101983.06;4876314;28;97052;-80
2021/04/25 07:12:22;;;;;;;;;;;;;;;13.22;29.65;101985.38;4860639;28;98929;-80
2021/04/25 07:14:48;;;;;;;;;;;;;;;13.16;29.21;101995.25;4872899;28;97347;-79
2021/04/25 07:17:14;;;;;;;;;;;;;;;12.31;30.30;101999.09;4869591;28;96841;-80
2021/04/25 07:19:41;;;;;;;;;;;;;;;11.41;31.46;101990.38;4871252;28;99535;-79
2021/04/25 07:22:07;;;;;;;;;;;;;;;11.96;30.79;101983.97;4878202;28;99413;-80
2021/04/25 07:24:33;;;;;;;;;;;;;;;12.66;29.53;101990.31;4876781;28;97235;-80
2021/04/25 07:26:59;;;;;;;;;;;;;;;12.95;29.28;101986.91;4878705;28;96993;-79
2021/04/25 07:29:25;;;;;;;;;;;;;;;12.74;29.22;101994.50;4878049;28;98200;-78
2021/04/25 07:31:50;;;;;;;;;;;;;;;12.21;30.07;101997.53;4864725;28;99436;-79
2021/04/25 07:34:16;;;;;;;;;;;;;;;12.92;28.86;101992.31;4875170;28;99044;-79
2021/04/25 07:36:43;;;;;;;;;;;;;;;12.66;29.25;101993.84;4876159;28;96858;-79
2021/04/25 07:39:11;;;;;;;;;;;;;;;12.20;29.77;102001.13;4877983;28;99244;-80
2021/04/25 07:41:38;;;;;;;;;;;;;;;12.32;29.88;101996.41;4867732;28;98199;-80
2021/04/25 07:44:04;;;;;;;;;;;;;;;12.47;30.02;101997.81;4881168;28;98823;-78
2021/04/25 07:46:30;;;;;;;;;;;;;;;11.77;30.92;102001.16;4874339;28;98521;-78
2021/04/25 07:48:56;;;;;;;;;;;;;;;12.40;30.06;102004.19;4881126;28;97893;-79
2021/04/25 07:51:22;;;;;;;;;;;;;;;12.58;29.82;101997.59;4882353;28;97034;-78
2021/04/25 07:53:51;;;;;;;;;;;;;;;12.59;29.39;101994.91;4884492;28;97521;-79
2021/04/25 07:56:17;;;;;;;;;;;;;;;12.65;29.38;101996.53;4901527;28;96815;-80
2021/04/25 07:58:42;;;;;;;;;;;;;;;13.21;28.95;101994.22;4887475;28;97661;-79
2021/04/25 08:01:08;;;;;;;;;;;;;;;13.13;28.79;102007.69;4883607;28;102295;-78
2021/04/25 08:03:34;;;;;;;;;;;;;;;12.73;29.12;102013.13;4882155;28;96885;-79
2021/04/25 08:06:01;;;;;;;;;;;;;;;12.75;29.26;102000.69;4878763;28;98825;-79
2021/04/25 08:08:26;;;;;;;;;;;;;;;12.65;29.85;102008.00;4862610;28;99498;-79
2021/04/25 08:10:53;;;;;;;;;;;;;;;14.21;28.16;102012.59;4878353;28;98279;-79
2021/04/25 08:13:19;;;;;;;;;;;;;;;14.39;26.14;102020.03;4878536;28;96886;-77
2021/04/25 08:15:45;;;;;;;;;;;;;;;14.30;26.47;102007.03;4863210;28;97563;-80
2021/04/25 08:18:11;;;;;;;;;;;;;;;14.49;26.73;102012.66;4881667;28;99279;-79
2021/04/25 08:20:37;;;;;;;;;;;;;;;14.86;26.45;102009.66;4875381;28;101952;-79
2021/04/25 08:23:03;;;;;;;;;;;;;;;15.20;25.83;102018.25;4876681;28;97056;-78
2021/04/25 08:25:28;;;;;;;;;;;;;;;15.17;25.61;102021.00;4877339;28;96987;-79
2021/04/25 08:27:55;;;;;;;;;;;;;;;13.90;27.59;102028.59;4873195;28;100123;-80
2021/04/25 08:30:21;;;;;;;;;;;;;;;12.87;29.31;102028.69;4877736;28;101648;-79
2021/04/25 08:32:47;;;;;;;;;;;;;;;12.62;30.18;102028.41;4874952;28;97227;-78
2021/04/25 08:35:13;;;;;;;;;;;;;;;12.33;31.22;102027.31;4874484;28;97398;-79
2021/04/25 08:37:39;;;;;;;;;;;;;;;12.32;31.63;102037.94;4875707;28;98836;-79
2021/04/25 08:40:07;;;;;;;;;;;;;;;12.28;32.46;102041.56;4875013;28;98071;-78
2021/04/25 08:42:33;;;;;;;;;;;;;;;12.42;32.35;102044.78;4867058;28;98514;-78
2021/04/25 08:45:00;;;;;;;;;;;;;;;12.53;32.33;102050.72;4876314;28;97337;-80
2021/04/25 08:47:27;;;;;;;;;;;;;;;12.26;33.25;102064.59;4877482;28;98194;-80
2021/04/25 08:49:56;;;;;;;;;;;;;;;12.17;34.17;102060.34;4874748;28;98821;-79
2021/04/25 08:52:22;;;;;;;;;;;;;;;13.52;32.86;102050.94;4874280;28;97520;-79
2021/04/25 08:54:48;;;;;;;;;;;;;;;13.06;33.71;102054.72;4875241;28;98024;-80
2021/04/25 08:57:14;;;;;;;;;;;;;;;14.47;31.94;102057.91;4881045;28;99313;-79
2021/04/25 08:59:40;;;;;;;;;;;;;;;14.75;31.26;102053.47;4876328;28;98584;-78
2021/04/25 09:02:06;;;;;;;;;;;;;;;13.56;32.68;102057.91;4877050;28;96998;-79
2021/04/25 09:04:32;;;;;;;;;;;;;;;12.40;34.89;102061.66;4878283;28;96909;-79
2021/04/25 09:06:59;;;;;;;;;;;;;;;11.97;35.81;102068.72;4874738;28;97844;-80
2021/04/25 09:09:40;;;;;;;;;;;;;;;12.01;36.46;102068.66;4872506;28;98896;-80
2021/04/25 09:12:06;;;;;;;;;;;;;;;12.82;35.02;102065.94;4861824;28;96830;-80
2021/04/25 09:14:32;;;;;;;;;;;;;;;13.78;33.18;102060.84;4877449;28;96860;-80
2021/04/25 09:17:00;;;;;;;;;;;;;;;13.75;33.54;102064.44;4875533;28;98878;-80
2021/04/25 09:19:46;;;;;;;;;;;;;;;13.73;33.59;102057.41;4870083;28;99261;-80
2021/04/25 09:22:12;;;;;;;;;;;;;;;12.65;35.65;102068.13;4878431;28;98017;-79
2021/04/25 09:24:38;;;;;;;;;;;;;;;13.57;34.20;102064.94;4867787;28;97465;-78
2021/04/25 09:27:04;;;;;;;;;;;;;;;13.79;33.10;102058.13;4872365;28;98227;-78
2021/04/25 09:29:46;;;;;;;;;;;;;;;13.22;34.31;102065.88;4886333;28;99794;-79
2021/04/25 09:32:16;;;;;;;;;;;;;;;12.77;34.83;102059.88;4885743;28;96795;-79
2021/04/25 09:34:42;;;;;;;;;;;;;;;13.19;33.99;102065.09;4877682;28;97162;-78
2021/04/25 09:37:12;;;;;;;;;;;;;;;13.13;33.76;102061.66;4887692;28;97820;-81
2021/04/25 09:39:38;;;;;;;;;;;;;;;13.44;33.06;102064.41;4892899;28;99419;-78
2021/04/25 09:42:07;;;;;;;;;;;;;;;13.69;33.06;102055.78;4887140;28;96852;-79
2021/04/25 09:44:33;;;;;;;;;;;;;;;13.37;33.42;102054.88;4896236;28;96851;-79
2021/04/25 09:47:01;;;;;;;;;;;;;;;14.03;32.68;102050.38;4884418;28;98156;-79
2021/04/25 09:49:37;;;;;;;;;;;;;;;13.69;32.86;102050.47;4881524;28;99866;-78
2021/04/25 09:52:04;;;;;;;;;;;;;;;14.16;32.30;102047.31;4877958;28;97741;-79
2021/04/25 09:54:30;;;;;;;;;;;;;;;14.33;31.42;102044.13;4881104;28;97058;-79
2021/04/25 09:56:56;;;;;;;;;;;;;;;14.61;31.06;102038.88;4874109;28;98222;-80
2021/04/25 09:59:22;;;;;;;;;;;;;;;15.02;30.19;102040.19;4882281;28;99040;-79
2021/04/25 10:01:47;;;;;;;;;;;;;;;15.14;29.89;102040.63;4878663;28;99374;-80
2021/04/25 10:04:29;;;;;;;;;;;;;;;15.28;29.79;102040.19;4881246;28;97324;-79
2021/04/25 10:06:56;;;;;;;;;;;;;;;15.71;28.78;102036.88;4876938;28;100131;-79
2021/04/25 10:09:22;;;;;;;;;;;;;;;15.65;27.97;102036.22;4872430;28;97775;-80
2021/04/25 10:11:49;;;;;;;;;;;;;;;14.77;28.50;102045.41;4881583;28;97294;-79
2021/04/25 10:14:15;;;;;;;;;;;;;;;15.05;28.17;102046.25;4880066;28;97434;-79
2021/04/25 10:16:41;;;;;;;;;;;;;;;14.67;28.36;102047.53;4890179;28;97759;-79
2021/04/25 10:19:08;;;;;;;;;;;;;;;13.79;29.89;102038.66;4891847;28;99325;-80
2021/04/25 10:21:34;;;;;;;;;;;;;;;12.77;31.58;102036.00;4888200;28;96998;-79
2021/04/25 10:24:00;;;;;;;;;;;;;;;13.64;30.04;102032.00;4871616;28;98415;-80
2021/04/25 10:26:28;;;;;;;;;;;;;;;14.29;28.82;102027.41;4873650;28;98771;-78
2021/04/25 10:28:56;;;;;;;;;;;;;;;15.19;28.04;102026.28;4876218;28;98873;-80
2021/04/25 10:31:27;;;;;;;;;;;;;;;15.37;27.49;102015.88;4879350;28;98714;-80
2021/04/25 10:33:54;;;;;;;;;;;;;;;15.48;27.18;102011.03;4875391;28;97172;-79
2021/04/25 10:36:20;;;;;;;;;;;;;;;13.73;26.63;102014.91;4874733;28;99442;-80
2021/04/25 10:38:46;;;;;;;;;;;;;;;14.22;26.07;102006.38;4882797;28;98160;-81
2021/04/25 10:41:19;;;;;;;;;;;;;;;14.76;25.52;102003.78;4875600;28;96778;-78
2021/04/25 10:43:59;;;;;;;;;;;;;;;14.86;25.73;102017.66;4867762;28;96840;-77
2021/04/25 10:46:26;;;;;;;;;;;;;;;14.95;25.76;102014.69;4863384;28;99329;-81
2021/04/25 10:49:07;;;;;;;;;;;;;;;14.61;26.24;102005.16;4878949;28;98698;-79
2021/04/25 10:51:42;;;;;;;;;;;;;;;14.89;26.10;102014.91;4875473;28;96820;-80
2021/04/25 10:54:07;;;;;;;;;;;;;;;15.00;25.77;102015.41;4887177;28;97463;-78
2021/04/25 10:56:35;;;;;;;;;;;;;;;14.28;26.76;102014.16;4899318;28;97384;-79
2021/04/25 10:59:27;;;;;;;;;;;;;;;14.02;27.53;102017.59;4900912;28;97686;-79
2021/04/25 11:01:54;;;;;;;;;;;;;;;14.29;27.09;102006.16;4884895;28;97335;-78
2021/04/25 11:04:38;;;;;;;;;;;;;;;13.02;28.49;101997.34;4881272;28;97000;-80
2021/04/25 11:07:32;;;;;;;;;;;;;;;14.40;27.50;101995.19;4869574;28;101219;-80
2021/04/25 11:09:58;;;;;;;;;;;;;;;14.94;26.42;101997.84;4880075;28;101362;-78
2021/04/25 11:12:37;;;;;;;;;;;;;;;13.72;27.83;102011.38;4871519;28;96845;-79
2021/04/25 11:15:03;;;;;;;;;;;;;;;13.59;27.90;102010.00;4879230;28;97241;-79
2021/04/25 11:17:30;;;;;;;;;;;;;;;13.09;28.78;102006.88;4871511;28;99236;-80
2021/04/25 11:19:57;;;;;;;;;;;;;;;13.79;28.00;102007.63;4881650;28;97686;-78
2021/04/25 11:22:41;;;;;;;;;;;;;;;14.29;27.33;102005.28;4884820;28;97585;-78
2021/04/25 11:25:21;;;;;;;;;;;;;;;13.21;28.16;102012.81;4873216;28;96888;-79
2021/04/25 11:27:47;;;;;;;;;;;;;;;14.47;26.60;101991.44;4887834;28;97898;-80
2021/04/25 11:30:33;;;;;;;;;;;;;;;15.67;25.34;101997.97;4879939;28;98980;-79
2021/04/25 11:33:28;;;;;;;;;;;;;;;15.37;25.13;101983.91;4893788;28;96771;-79
2021/04/25 11:36:15;;;;;;;;;;;;;;;15.78;24.86;102000.22;4875414;28;96925;-78
2021/04/25 11:38:46;;;;;;;;;;;;;;;14.62;26.40;101985.63;4870032;28;98099;-79
2021/04/25 11:41:11;;;;;;;;;;;;;;;15.09;25.87;101993.81;4869143;28;99432;-78
2021/04/25 11:43:41;;;;;;;;;;;;;;;14.94;25.26;101994.31;4879385;28;97288;-78
2021/04/25 11:46:07;;;;;;;;;;;;;;;14.70;23.91;101980.91;4878677;28;96814;-78
2021/04/25 11:48:33;;;;;;;;;;;;;;;14.62;22.47;101985.63;4873800;28;99198;-77
2021/04/25 11:50:59;;;;;;;;;;;;;;;13.95;21.53;101990.34;4886721;28;99460;-78
2021/04/25 11:53:31;;;;;;;;;;;;;;;14.50;21.40;101983.38;4872163;28;96827;-77
2021/04/25 11:55:57;;;;;;;;;;;;;;;14.27;21.71;101981.38;4873313;28;97141;-77
2021/04/25 11:58:23;;;;;;;;;;;;;;;14.80;21.08;101981.47;4882381;28;99261;-78
2021/04/25 12:00:49;;;;;;;;;;;;;;;14.62;21.93;101988.28;4878129;28;101702;-78
2021/04/25 12:03:15;;;;;;;;;;;;;;;14.38;22.17;101989.03;4868781;28;98515;-77
2021/04/25 12:06:02;;;;;;;;;;;;;;;14.94;21.95;101983.66;4879580;28;97155;-78
2021/04/25 12:08:28;;;;;;;;;;;;;;;15.50;20.95;101985.19;4882981;28;99485;-78
2021/04/25 12:10:54;;;;;;;;;;;;;;;14.85;21.06;101994.63;4877637;28;98869;-78
2021/04/25 12:13:20;;;;;;;;;;;;;;;14.70;20.75;101996.03;4871612;28;97275;-78
2021/04/25 12:15:48;;;;;;;;;;;;;;;15.47;19.98;102001.31;4872012;28;97045;-79
2021/04/25 12:18:14;;;;;;;;;;;;;;;15.42;19.22;101986.44;4879604;28;99309;-79
2021/04/25 12:20:43;;;;;;;;;;;;;;;15.48;19.14;101992.41;4870010;28;98160;-78
2021/04/25 12:23:12;;;;;;;;;;;;;;;15.10;19.56;101990.19;4867571;28;97111;-79
2021/04/25 12:25:38;;;;;;;;;;;;;;;15.18;19.46;101995.25;4875205;28;97773;-77
2021/04/25 12:28:07;;;;;;;;;;;;;;;14.98;19.73;101995.94;4873009;28;99398;-78
2021/04/25 12:30:32;;;;;;;;;;;;;;;15.11;19.80;101992.81;4870043;28;97667;-79
2021/04/25 12:33:06;;;;;;;;;;;;;;;15.03;19.98;101994.03;4873590;28;97323;-79
2021/04/25 12:35:32;;;;;;;;;;;;;;;15.53;19.43;101984.25;4866568;28;96945;-78